Time;durP1;ratioP1;P1;durP2;ratioP2;P2;SDS_P1;SDS_P2;PMS_P1;PMS_P2;Temp;Humidity;BMP_temperature;BMP_pressure;BME280_temperature;BME280_humidity;BME280_pressure;Samples;Min_cycle;Max_cycle;Signal;HPM_P1;HPM_P2
2022/10/19 00:01:54;;;;;;;4.23;3.50;;;;;;;;;;5096013;28;20224;-74
2022/10/19 00:04:21;;;;;;;6.80;3.25;;;;;;;;;;5096351;28;20342;-74
2022/10/19 00:06:48;;;;;;;8.18;3.78;;;;;;;;;;5096441;28;20233;-73
2022/10/19 00:09:16;;;;;;;8.98;3.55;;;;;;;;;;5092932;28;20213;-74
2022/10/19 00:11:44;;;;;;;4.57;3.00;;;;;;;;;;5099937;28;20225;-74
2022/10/19 00:14:13;;;;;;;6.53;3.97;;;;;;;;;;5093990;28;20567;-74
2022/10/19 00:16:40;;;;;;;9.03;3.27;;;;;;;;;;5099292;28;20778;-74
2022/10/19 00:19:10;;;;;;;6.93;3.45;;;;;;;;;;5100561;28;20680;-73
2022/10/19 00:21:38;;;;;;;4.43;3.10;;;;;;;;;;5095626;28;20202;-74
2022/10/19 00:24:05;;;;;;;4.15;3.75;;;;;;;;;;5099556;28;20205;-74
2022/10/19 00:26:32;;;;;;;5.70;3.47;;;;;;;;;;5092331;28;20718;-74
2022/10/19 00:28:59;;;;;;;4.88;3.55;;;;;;;;;;5097398;28;20214;-74
2022/10/19 00:31:27;;;;;;;6.28;3.38;;;;;;;;;;5095512;28;20225;-73
2022/10/19 00:33:58;;;;;;;10.60;3.60;;;;;;;;;;5094432;28;20205;-74
2022/10/19 00:36:27;;;;;;;6.03;3.57;;;;;;;;;;5098273;28;20202;-74
2022/10/19 00:38:55;;;;;;;3.67;3.13;;;;;;;;;;5105967;28;20206;-74
2022/10/19 00:41:23;;;;;;;5.93;3.38;;;;;;;;;;5105161;28;20193;-74
2022/10/19 00:43:50;;;;;;;10.27;3.33;;;;;;;;;;5101791;28;20839;-74
2022/10/19 00:46:17;;;;;;;3.93;3.50;;;;;;;;;;5103094;28;20225;-74
2022/10/19 00:48:45;;;;;;;4.05;3.70;;;;;;;;;;5103416;28;20205;-74
2022/10/19 00:51:12;;;;;;;4.63;3.53;;;;;;;;;;5098388;28;20589;-74
2022/10/19 00:53:40;;;;;;;7.33;3.80;;;;;;;;;;5091867;28;20209;-74
2022/10/19 00:56:10;;;;;;;5.97;3.33;;;;;;;;;;5091251;28;20223;-74
2022/10/19 00:58:37;;;;;;;7.53;3.83;;;;;;;;;;5101137;28;20209;-74
2022/10/19 01:01:06;;;;;;;5.67;3.40;;;;;;;;;;5101821;28;20199;-74
2022/10/19 01:03:33;;;;;;;8.17;4.30;;;;;;;;;;5089568;28;20312;-74
2022/10/19 01:06:01;;;;;;;3.80;3.50;;;;;;;;;;5092901;28;20213;-74
2022/10/19 01:08:28;;;;;;;3.87;3.30;;;;;;;;;;5096569;28;20209;-74
2022/10/19 01:11:00;;;;;;;8.53;3.73;;;;;;;;;;5098153;28;20230;-74
2022/10/19 01:13:35;;;;;;;4.07;3.53;;;;;;;;;;5099208;28;20210;-74
2022/10/19 01:16:05;;;;;;;4.30;3.17;;;;;;;;;;5097024;28;20662;-74
2022/10/19 01:18:38;;;;;;;10.02;3.88;;;;;;;;;;5089505;28;20206;-74
2022/10/19 01:21:19;;;;;;;4.70;3.10;;;;;;;;;;5101513;28;20202;-74
2022/10/19 01:24:04;;;;;;;8.33;3.57;;;;;;;;;;5088840;28;20206;-74
2022/10/19 01:26:49;;;;;;;3.37;3.07;;;;;;;;;;5097568;28;20209;-74
2022/10/19 01:29:19;;;;;;;5.72;4.15;;;;;;;;;;5095313;28;20198;-74
2022/10/19 01:31:50;;;;;;;5.73;3.70;;;;;;;;;;5091959;28;20230;-74
2022/10/19 01:34:20;;;;;;;9.55;4.53;;;;;;;;;;5096058;28;20210;-74
2022/10/19 01:36:58;;;;;;;4.83;3.57;;;;;;;;;;5107413;28;20206;-74
2022/10/19 01:39:26;;;;;;;7.00;3.70;;;;;;;;;;5100461;28;20206;-74
2022/10/19 01:41:58;;;;;;;4.47;3.83;;;;;;;;;;5098160;28;20560;-74
2022/10/19 01:44:29;;;;;;;5.13;3.80;;;;;;;;;;5100101;28;20206;-74
2022/10/19 01:46:59;;;;;;;8.70;3.67;;;;;;;;;;5095751;28;20210;-74
2022/10/19 01:49:29;;;;;;;7.93;4.60;;;;;;;;;;5099345;28;20197;-74
2022/10/19 01:51:59;;;;;;;10.27;4.80;;;;;;;;;;5098949;28;20226;-74
2022/10/19 01:54:29;;;;;;;8.50;4.90;;;;;;;;;;5097589;28;20212;-74
2022/10/19 01:56:57;;;;;;;6.37;4.23;;;;;;;;;;5097440;28;20585;-74
2022/10/19 01:59:25;;;;;;;6.90;4.00;;;;;;;;;;5099411;28;20249;-74
2022/10/19 02:01:54;;;;;;;5.57;3.60;;;;;;;;;;5101344;28;20656;-74
2022/10/19 02:04:24;;;;;;;15.03;5.83;;;;;;;;;;5096602;28;20217;-74
2022/10/19 02:06:51;;;;;;;15.57;5.83;;;;;;;;;;5097087;28;20210;-74
2022/10/19 02:09:19;;;;;;;13.27;5.57;;;;;;;;;;5099317;28;20221;-74
2022/10/19 02:11:47;;;;;;;11.73;5.33;;;;;;;;;;5098874;28;20755;-74
2022/10/19 02:14:15;;;;;;;10.13;5.40;;;;;;;;;;5096952;28;20228;-74
2022/10/19 02:16:46;;;;;;;6.67;4.23;;;;;;;;;;5102436;28;20210;-73
2022/10/19 02:19:13;;;;;;;10.50;5.93;;;;;;;;;;5097020;28;20205;-73
2022/10/19 02:21:42;;;;;;;8.73;5.87;;;;;;;;;;5096965;28;20603;-74
2022/10/19 02:24:09;;;;;;;11.00;5.77;;;;;;;;;;5096853;28;20204;-73
2022/10/19 02:26:36;;;;;;;10.23;5.00;;;;;;;;;;5098820;28;20229;-74
2022/10/19 02:29:03;;;;;;;13.63;5.13;;;;;;;;;;5093870;28;20206;-73
2022/10/19 02:31:30;;;;;;;11.07;4.90;;;;;;;;;;5094021;28;20218;-74
2022/10/19 02:33:57;;;;;;;7.67;4.17;;;;;;;;;;5096527;28;20232;-74
2022/10/19 02:36:24;;;;;;;7.87;4.77;;;;;;;;;;5097974;28;20210;-74
2022/10/19 02:38:53;;;;;;;7.37;3.77;;;;;;;;;;5098662;28;20213;-74
2022/10/19 02:41:22;;;;;;;6.90;4.20;;;;;;;;;;5098253;28;20201;-74
2022/10/19 02:43:50;;;;;;;7.90;4.63;;;;;;;;;;5092407;28;20213;-74
2022/10/19 02:46:21;;;;;;;6.53;3.97;;;;;;;;;;5097249;28;20213;-73
2022/10/19 02:49:04;;;;;;;8.20;4.03;;;;;;;;;;5097071;28;20261;-73
2022/10/19 02:51:32;;;;;;;7.83;4.63;;;;;;;;;;5099409;28;20228;-74
2022/10/19 02:54:00;;;;;;;11.10;4.17;;;;;;;;;;5094201;28;20699;-73
2022/10/19 02:56:28;;;;;;;8.40;4.23;;;;;;;;;;5097914;28;20198;-73
2022/10/19 02:58:55;;;;;;;7.73;4.37;;;;;;;;;;5089295;28;20213;-73
2022/10/19 03:01:22;;;;;;;8.80;4.60;;;;;;;;;;5100338;28;20683;-74
2022/10/19 03:03:49;;;;;;;9.87;4.47;;;;;;;;;;5104370;28;20221;-74
2022/10/19 03:06:16;;;;;;;8.03;4.63;;;;;;;;;;5100976;28;20668;-74
2022/10/19 03:08:43;;;;;;;5.73;4.20;;;;;;;;;;5107702;28;20217;-73
2022/10/19 03:11:11;;;;;;;9.73;4.07;;;;;;;;;;5101630;28;20222;-74
2022/10/19 03:13:38;;;;;;;11.67;4.70;;;;;;;;;;5099505;28;20202;-74
2022/10/19 03:16:09;;;;;;;14.17;4.50;;;;;;;;;;5097577;28;20203;-74
2022/10/19 03:18:36;;;;;;;8.87;4.07;;;;;;;;;;5097208;28;20213;-74
2022/10/19 03:21:04;;;;;;;11.17;4.10;;;;;;;;;;5093934;28;20210;-74
2022/10/19 03:23:31;;;;;;;10.13;3.87;;;;;;;;;;5095775;28;20209;-74
2022/10/19 03:25:58;;;;;;;10.90;4.43;;;;;;;;;;5099449;28;20217;-74
2022/10/19 03:28:26;;;;;;;9.17;4.20;;;;;;;;;;5095679;28;20249;-74
2022/10/19 03:30:53;;;;;;;11.33;5.07;;;;;;;;;;5091957;28;20203;-74
2022/10/19 03:33:20;;;;;;;7.13;3.70;;;;;;;;;;5094604;28;20201;-74
2022/10/19 03:35:47;;;;;;;10.10;3.83;;;;;;;;;;5094512;28;20197;-74
2022/10/19 03:38:15;;;;;;;12.73;4.17;;;;;;;;;;5094185;28;20199;-74
2022/10/19 03:40:42;;;;;;;10.40;4.17;;;;;;;;;;5097325;28;20209;-74
2022/10/19 03:43:09;;;;;;;12.50;4.87;;;;;;;;;;5097801;28;20202;-74
2022/10/19 03:45:37;;;;;;;9.67;5.00;;;;;;;;;;5095471;28;20217;-74
2022/10/19 03:48:04;;;;;;;13.33;5.10;;;;;;;;;;5098114;28;20205;-74
2022/10/19 03:50:31;;;;;;;7.40;4.73;;;;;;;;;;5097440;28;20191;-74
2022/10/19 03:52:58;;;;;;;17.33;5.60;;;;;;;;;;5095091;28;20221;-73
2022/10/19 03:55:25;;;;;;;9.40;4.07;;;;;;;;;;5094938;28;20214;-73
2022/10/19 03:57:52;;;;;;;6.63;3.43;;;;;;;;;;5096343;28;20822;-73
2022/10/19 04:00:19;;;;;;;6.33;3.97;;;;;;;;;;5095886;28;20206;-73
2022/10/19 04:02:48;;;;;;;10.63;4.83;;;;;;;;;;5096672;28;20196;-73
2022/10/19 04:05:16;;;;;;;7.77;4.60;;;;;;;;;;5095353;28;20206;-73
2022/10/19 04:07:43;;;;;;;8.00;4.47;;;;;;;;;;5099886;28;20214;-73
2022/10/19 04:10:10;;;;;;;7.70;4.83;;;;;;;;;;5097244;28;20214;-73
2022/10/19 04:12:37;;;;;;;8.27;4.60;;;;;;;;;;5097874;28;20625;-73
2022/10/19 04:15:04;;;;;;;9.10;4.10;;;;;;;;;;5092971;28;20225;-73
2022/10/19 04:17:31;;;;;;;5.50;3.93;;;;;;;;;;5098935;28;20213;-74
2022/10/19 04:20:00;;;;;;;8.77;4.23;;;;;;;;;;5096274;28;20217;-73
2022/10/19 04:22:27;;;;;;;9.87;4.30;;;;;;;;;;5100347;28;20210;-73
2022/10/19 04:24:54;;;;;;;5.73;4.10;;;;;;;;;;5098429;28;20216;-73
2022/10/19 04:27:23;;;;;;;9.40;3.53;;;;;;;;;;5098482;28;20256;-73
2022/10/19 04:29:50;;;;;;;9.03;4.03;;;;;;;;;;5095253;28;20274;-73
2022/10/19 04:32:17;;;;;;;6.63;3.83;;;;;;;;;;5104328;28;20210;-73
2022/10/19 04:34:44;;;;;;;5.00;3.47;;;;;;;;;;5096301;28;20202;-73
2022/10/19 04:37:12;;;;;;;4.53;3.10;;;;;;;;;;5095234;28;20201;-73
2022/10/19 04:39:42;;;;;;;8.67;3.73;;;;;;;;;;5096728;28;20229;-73
2022/10/19 04:42:09;;;;;;;10.87;3.67;;;;;;;;;;5096624;28;20198;-73
2022/10/19 04:44:36;;;;;;;5.87;3.50;;;;;;;;;;5094165;28;20437;-73
2022/10/19 04:47:03;;;;;;;9.17;3.60;;;;;;;;;;5097346;28;20632;-73
2022/10/19 04:49:30;;;;;;;4.20;3.80;;;;;;;;;;5095496;28;20878;-73
2022/10/19 04:51:57;;;;;;;5.10;3.23;;;;;;;;;;5094287;28;20225;-73
2022/10/19 04:54:25;;;;;;;3.77;3.03;;;;;;;;;;5095958;28;20202;-73
2022/10/19 04:56:53;;;;;;;4.73;3.00;;;;;;;;;;5093485;28;20198;-73
2022/10/19 04:59:20;;;;;;;8.93;3.70;;;;;;;;;;5096493;28;20728;-73
2022/10/19 05:01:47;;;;;;;5.13;3.70;;;;;;;;;;5090363;28;20214;-74
2022/10/19 05:04:14;;;;;;;10.17;4.20;;;;;;;;;;5089348;28;20233;-73
2022/10/19 05:06:41;;;;;;;8.83;4.13;;;;;;;;;;5088968;28;20615;-73
2022/10/19 05:09:08;;;;;;;12.17;4.17;;;;;;;;;;5100577;28;20228;-73
2022/10/19 05:11:36;;;;;;;8.50;4.03;;;;;;;;;;5093650;28;20259;-73
2022/10/19 05:14:03;;;;;;;9.60;4.33;;;;;;;;;;5093799;28;20708;-73
2022/10/19 05:16:30;;;;;;;4.97;4.00;;;;;;;;;;5093295;28;20253;-73
2022/10/19 05:18:58;;;;;;;4.37;3.83;;;;;;;;;;5100689;28;20652;-72
2022/10/19 05:21:26;;;;;;;4.43;3.73;;;;;;;;;;5110551;28;20201;-72
2022/10/19 05:23:54;;;;;;;10.73;4.23;;;;;;;;;;5098914;28;20198;-73
2022/10/19 05:26:22;;;;;;;7.13;4.07;;;;;;;;;;5100369;28;20248;-72
2022/10/19 05:28:55;;;;;;;6.93;3.83;;;;;;;;;;5100696;28;20296;-72
2022/10/19 05:31:22;;;;;;;8.80;3.87;;;;;;;;;;5104371;28;20201;-72
2022/10/19 05:33:49;;;;;;;6.70;4.17;;;;;;;;;;5099476;28;20232;-73
2022/10/19 05:36:17;;;;;;;6.90;4.27;;;;;;;;;;5095957;28;20198;-73
2022/10/19 05:38:44;;;;;;;7.87;4.17;;;;;;;;;;5103822;28;20204;-74
2022/10/19 05:41:11;;;;;;;11.63;4.63;;;;;;;;;;5109334;28;20213;-74
2022/10/19 05:43:39;;;;;;;7.93;3.97;;;;;;;;;;5096728;28;20206;-74
2022/10/19 05:46:09;;;;;;;5.67;3.90;;;;;;;;;;5091267;28;20206;-74
2022/10/19 05:48:36;;;;;;;7.73;4.50;;;;;;;;;;5098407;28;20210;-75
2022/10/19 05:51:04;;;;;;;4.37;3.73;;;;;;;;;;5092948;28;20195;-74
2022/10/19 05:56:35;;;;;;;4.57;3.27;;;;;;;;;;5095978;28;20186;-72
2022/10/19 05:59:03;;;;;;;7.53;4.40;;;;;;;;;;5107602;28;20205;-72
2022/10/19 06:01:31;;;;;;;9.87;3.97;;;;;;;;;;5110648;28;20220;-72
2022/10/19 06:03:59;;;;;;;6.17;3.73;;;;;;;;;;5108871;28;20625;-75
2022/10/19 06:06:27;;;;;;;5.63;3.87;;;;;;;;;;5110227;28;20217;-64
2022/10/19 06:08:54;;;;;;;5.63;3.67;;;;;;;;;;5110380;28;20259;-66
2022/10/19 06:11:22;;;;;;;7.00;4.17;;;;;;;;;;5109524;28;20209;-66
2022/10/19 06:13:50;;;;;;;7.00;3.43;;;;;;;;;;5095003;28;20244;-66
2022/10/19 06:16:18;;;;;;;7.70;4.47;;;;;;;;;;5089897;28;20214;-66
2022/10/19 06:18:47;;;;;;;9.80;4.30;;;;;;;;;;5107112;28;20201;-67
2022/10/19 06:21:15;;;;;;;8.93;4.00;;;;;;;;;;5109860;28;20205;-66
2022/10/19 06:23:42;;;;;;;9.37;4.60;;;;;;;;;;5109952;28;20201;-66
2022/10/19 06:26:11;;;;;;;11.93;4.70;;;;;;;;;;5109861;28;20217;-66
2022/10/19 06:28:39;;;;;;;9.83;4.00;;;;;;;;;;5095426;28;20340;-66
2022/10/19 06:31:06;;;;;;;8.80;4.93;;;;;;;;;;5089653;28;20220;-66
2022/10/19 06:33:33;;;;;;;5.47;3.63;;;;;;;;;;5101778;28;20707;-66
2022/10/19 06:36:06;;;;;;;6.90;4.37;;;;;;;;;;5107329;28;20202;-65
2022/10/19 06:38:33;;;;;;;9.87;4.80;;;;;;;;;;5097273;28;20221;-67
2022/10/19 06:41:01;;;;;;;8.93;4.30;;;;;;;;;;5090846;28;20232;-71
2022/10/19 06:43:28;;;;;;;8.87;4.63;;;;;;;;;;5089071;28;20206;-69
2022/10/19 06:45:55;;;;;;;9.33;4.40;;;;;;;;;;5105466;28;20209;-72
2022/10/19 06:48:43;;;;;;;6.00;3.23;;;;;;;;;;5108988;28;20516;-72
2022/10/19 06:51:12;;;;;;;7.00;4.73;;;;;;;;;;5104200;28;20218;-73
2022/10/19 06:53:39;;;;;;;9.43;4.43;;;;;;;;;;5108348;28;20229;-71
2022/10/19 06:56:07;;;;;;;7.90;4.47;;;;;;;;;;5108639;28;20209;-67
2022/10/19 06:58:36;;;;;;;8.13;4.03;;;;;;;;;;5108440;28;20205;-69
2022/10/19 07:01:03;;;;;;;10.70;4.47;;;;;;;;;;5108119;28;20236;-70
2022/10/19 07:03:31;;;;;;;5.90;4.63;;;;;;;;;;5108117;28;20229;-70
2022/10/19 07:05:59;;;;;;;7.03;4.23;;;;;;;;;;5108239;28;20220;-70
2022/10/19 07:08:28;;;;;;;7.67;3.97;;;;;;;;;;5108248;28;20687;-70
2022/10/19 07:10:56;;;;;;;7.20;4.43;;;;;;;;;;5107467;28;20972;-70
2022/10/19 07:13:23;;;;;;;9.07;4.67;;;;;;;;;;5107721;28;20237;-69
2022/10/19 07:15:50;;;;;;;8.03;4.27;;;;;;;;;;5107934;28;20213;-69
2022/10/19 07:18:18;;;;;;;6.53;3.77;;;;;;;;;;5105993;28;20210;-69
2022/10/19 07:20:53;;;;;;;6.87;3.97;;;;;;;;;;5107748;28;20205;-69
2022/10/19 07:23:20;;;;;;;8.47;4.37;;;;;;;;;;5107636;28;20209;-69
2022/10/19 07:25:51;;;;;;;6.50;4.50;;;;;;;;;;5108180;28;20209;-71
2022/10/19 07:28:18;;;;;;;6.57;4.10;;;;;;;;;;5108229;28;20248;-71
2022/10/19 07:30:45;;;;;;;9.77;4.10;;;;;;;;;;5108244;28;20229;-71
2022/10/19 07:33:12;;;;;;;9.57;4.60;;;;;;;;;;5107644;28;20229;-71
2022/10/19 07:35:39;;;;;;;7.63;4.43;;;;;;;;;;5108192;28;20746;-71
2022/10/19 07:38:07;;;;;;;7.50;4.17;;;;;;;;;;5104787;28;20205;-71
2022/10/19 07:40:34;;;;;;;7.03;4.07;;;;;;;;;;5107465;28;20252;-70
2022/10/19 07:43:02;;;;;;;5.93;3.23;;;;;;;;;;5107474;28;20349;-70
2022/10/19 07:45:29;;;;;;;9.93;3.70;;;;;;;;;;5107411;28;20212;-70
2022/10/19 07:47:56;;;;;;;12.43;3.90;;;;;;;;;;5107747;28;20243;-70
2022/10/19 07:50:26;;;;;;;5.10;3.73;;;;;;;;;;5107547;28;20645;-70
2022/10/19 07:52:53;;;;;;;8.70;3.87;;;;;;;;;;5107443;28;20222;-70
2022/10/19 07:55:20;;;;;;;5.30;3.97;;;;;;;;;;5107264;28;20320;-70
2022/10/19 07:57:47;;;;;;;4.60;3.40;;;;;;;;;;5107027;28;20672;-71
2022/10/19 08:00:16;;;;;;;6.27;3.67;;;;;;;;;;5107520;28;20241;-70
2022/10/19 08:02:44;;;;;;;6.10;3.50;;;;;;;;;;5107302;28;20209;-69
2022/10/19 08:05:11;;;;;;;5.27;3.73;;;;;;;;;;5107344;28;20443;-70
2022/10/19 08:07:38;;;;;;;8.20;3.73;;;;;;;;;;5107505;28;20206;-70
2022/10/19 08:10:05;;;;;;;6.43;3.77;;;;;;;;;;5102858;28;20687;-70
2022/10/19 08:12:35;;;;;;;6.33;2.90;;;;;;;;;;5094806;28;20206;-70
2022/10/19 08:15:05;;;;;;;6.53;3.30;;;;;;;;;;5095567;28;20202;-67
2022/10/19 08:17:35;;;;;;;7.87;3.53;;;;;;;;;;5105541;28;20636;-73
2022/10/19 08:20:02;;;;;;;2.30;1.80;;;;;;;;;;5087592;28;20214;-70
2022/10/19 08:22:29;;;;;;;3.30;3.00;;;;;;;;;;5088473;28;20206;-70
2022/10/19 08:24:56;;;;;;;6.20;2.73;;;;;;;;;;5087577;28;20583;-69
2022/10/19 08:27:23;;;;;;;3.43;1.97;;;;;;;;;;5094422;28;20233;-70
2022/10/19 08:29:50;;;;;;;2.50;2.03;;;;;;;;;;5106223;28;20198;-67
2022/10/19 08:32:17;;;;;;;2.40;2.20;;;;;;;;;;5107878;28;20205;-69
2022/10/19 08:34:45;;;;;;;2.47;2.33;;;;;;;;;;5103305;28;20241;-69
2022/10/19 08:37:12;;;;;;;4.63;2.97;;;;;;;;;;5090313;28;20216;-69
2022/10/19 08:39:40;;;;;;;3.53;2.20;;;;;;;;;;5101904;28;20836;-70
2022/10/19 08:42:12;;;;;;;3.13;2.47;;;;;;;;;;5103474;28;20197;-70
2022/10/19 08:44:53;;;;;;;2.77;2.57;;;;;;;;;;5101627;28;20213;-70
2022/10/19 08:47:28;;;;;;;3.75;2.72;;;;;;;;;;5091454;28;20206;-69
2022/10/19 08:49:56;;;;;;;2.38;2.13;;;;;;;;;;5110350;28;20213;-71
2022/10/19 08:52:26;;;;;;;3.13;1.98;;;;;;;;;;5111643;28;20618;-70
2022/10/19 08:54:54;;;;;;;2.83;2.17;;;;;;;;;;5111390;28;20224;-69
2022/10/19 08:57:29;;;;;;;2.67;2.40;;;;;;;;;;5111497;28;20684;-69
2022/10/19 09:00:00;;;;;;;3.78;2.30;;;;;;;;;;5111445;28;20269;-69
2022/10/19 09:02:34;;;;;;;2.17;2.08;;;;;;;;;;5110955;28;20209;-69
2022/10/19 09:05:06;;;;;;;1.65;1.17;;;;;;;;;;5111185;28;20224;-68
2022/10/19 09:07:36;;;;;;;2.80;2.57;;;;;;;;;;5111257;28;20209;-68
2022/10/19 09:10:04;;;;;;;4.57;2.28;;;;;;;;;;5110971;27;20296;-69
2022/10/19 09:12:34;;;;;;;4.18;2.22;;;;;;;;;;5111297;28;20217;-68
2022/10/19 09:15:02;;;;;;;3.03;2.13;;;;;;;;;;5110871;28;20420;-69
2022/10/19 09:17:29;;;;;;;5.28;2.35;;;;;;;;;;5111117;28;20209;-69
2022/10/19 09:19:57;;;;;;;2.60;2.25;;;;;;;;;;5111123;28;20671;-69
2022/10/19 09:22:28;;;;;;;4.18;2.33;;;;;;;;;;5111268;28;20287;-69
2022/10/19 09:24:56;;;;;;;3.83;2.28;;;;;;;;;;5110724;28;20198;-69
2022/10/19 09:27:24;;;;;;;5.18;2.20;;;;;;;;;;5110614;28;20237;-69
2022/10/19 09:29:54;;;;;;;1.92;1.65;;;;;;;;;;5110822;28;20229;-69
2022/10/19 09:32:24;;;;;;;4.18;2.38;;;;;;;;;;5110684;28;20250;-70
2022/10/19 09:34:52;;;;;;;3.38;2.40;;;;;;;;;;5110326;28;20233;-69
2022/10/19 09:37:20;;;;;;;2.47;1.77;;;;;;;;;;5110760;28;20198;-70
2022/10/19 09:39:48;;;;;;;3.30;2.28;;;;;;;;;;5110410;28;20213;-70
2022/10/19 09:42:21;;;;;;;2.78;1.90;;;;;;;;;;5110448;28;20209;-69
2022/10/19 09:44:49;;;;;;;1.98;1.85;;;;;;;;;;5110736;28;20240;-69
2022/10/19 09:47:23;;;;;;;2.35;2.05;;;;;;;;;;5110254;28;20225;-69
2022/10/19 09:49:50;;;;;;;2.40;2.20;;;;;;;;;;5110724;28;20213;-70
2022/10/19 09:52:25;;;;;;;2.83;2.28;;;;;;;;;;5110418;28;20205;-70
2022/10/19 09:55:00;;;;;;;3.88;2.00;;;;;;;;;;5107819;28;20323;-71
2022/10/19 09:57:27;;;;;;;2.78;1.40;;;;;;;;;;5109979;28;20209;-71
2022/10/19 09:59:54;;;;;;;2.63;2.33;;;;;;;;;;5110339;28;20225;-68
2022/10/19 10:02:22;;;;;;;4.18;2.15;;;;;;;;;;5109931;28;20216;-68
2022/10/19 10:04:55;;;;;;;3.25;2.38;;;;;;;;;;5103201;28;20221;-69
2022/10/19 10:07:26;;;;;;;2.53;1.98;;;;;;;;;;5105529;28;20201;-71
2022/10/19 10:09:54;;;;;;;2.20;1.85;;;;;;;;;;5110621;28;20214;-71
2022/10/19 10:12:23;;;;;;;2.42;1.77;;;;;;;;;;5110001;28;20910;-69
2022/10/19 10:14:50;;;;;;;2.33;2.13;;;;;;;;;;5110502;27;20229;-71
2022/10/19 10:17:19;;;;;;;2.37;2.00;;;;;;;;;;5110497;28;20671;-69
2022/10/19 10:20:03;;;;;;;3.55;2.25;;;;;;;;;;5110363;28;20215;-69
2022/10/19 10:22:32;;;;;;;2.23;2.03;;;;;;;;;;5108785;28;20209;-70
2022/10/19 10:25:00;;;;;;;2.53;2.33;;;;;;;;;;5109420;28;20202;-68
2022/10/19 10:27:32;;;;;;;4.60;2.45;;;;;;;;;;5109733;28;20244;-68
2022/10/19 10:29:59;;;;;;;4.00;2.05;;;;;;;;;;5109648;28;20296;-68
2022/10/19 10:32:27;;;;;;;2.63;2.42;;;;;;;;;;5104365;28;20206;-69
2022/10/19 10:34:58;;;;;;;3.03;2.70;;;;;;;;;;5102796;28;20268;-69
2022/10/19 10:37:29;;;;;;;4.65;2.30;;;;;;;;;;5096540;28;20213;-70
2022/10/19 10:39:57;;;;;;;3.03;1.90;;;;;;;;;;5098514;28;20210;-69
2022/10/19 10:42:28;;;;;;;5.50;2.58;;;;;;;;;;5099736;28;20303;-69
2022/10/19 10:44:56;;;;;;;2.95;2.25;;;;;;;;;;5104744;28;20194;-69
2022/10/19 10:47:25;;;;;;;2.33;2.10;;;;;;;;;;5105007;28;20210;-70
2022/10/19 10:49:57;;;;;;;2.45;1.88;;;;;;;;;;5087541;28;20261;-70
2022/10/19 10:52:26;;;;;;;2.60;2.00;;;;;;;;;;5102204;28;20233;-68
2022/10/19 10:55:01;;;;;;;10.07;3.10;;;;;;;;;;5108619;28;20320;-71
2022/10/19 10:57:31;;;;;;;2.80;2.50;;;;;;;;;;5108293;28;20216;-69
2022/10/19 11:00:02;;;;;;;4.88;2.38;;;;;;;;;;5108933;28;20229;-70
2022/10/19 11:02:32;;;;;;;4.20;2.95;;;;;;;;;;5107578;28;20206;-68
2022/10/19 11:05:01;;;;;;;3.08;2.65;;;;;;;;;;5088035;28;20324;-68
2022/10/19 11:07:29;;;;;;;5.97;2.22;;;;;;;;;;5087187;28;20684;-68
2022/10/19 11:09:58;;;;;;;2.60;2.20;;;;;;;;;;5087035;28;20636;-70
2022/10/19 11:12:32;;;;;;;2.83;2.63;;;;;;;;;;5087719;28;20210;-70
2022/10/19 11:15:03;;;;;;;5.78;2.72;;;;;;;;;;5091890;28;20232;-68
2022/10/19 11:17:33;;;;;;;3.35;2.35;;;;;;;;;;5088897;28;20210;-69
2022/10/19 11:20:00;;;;;;;2.92;2.63;;;;;;;;;;5094548;28;20245;-69
2022/10/19 11:22:28;;;;;;;4.60;2.67;;;;;;;;;;5095177;28;20220;-70
2022/10/19 11:25:06;;;;;;;8.90;4.63;;;;;;;;;;5096802;28;20194;-73
2022/10/19 11:27:43;;;;;;;217.20;86.50;;;;;;;;;;5095127;28;20268;-75
2022/10/19 11:30:12;;;;;;;46.67;20.13;;;;;;;;;;5095399;28;20738;-71
2022/10/19 11:32:45;;;;;;;3.08;2.60;;;;;;;;;;5106106;28;20425;-69
2022/10/19 11:35:27;;;;;;;4.63;2.85;;;;;;;;;;5107435;28;20229;-69
2022/10/19 11:38:00;;;;;;;4.60;2.60;;;;;;;;;;5105719;28;20206;-68
2022/10/19 11:40:31;;;;;;;4.25;2.55;;;;;;;;;;5099719;28;20216;-70
2022/10/19 11:43:03;;;;;;;4.47;2.63;;;;;;;;;;5093853;28;20212;-70
2022/10/19 11:45:48;;;;;;;1.92;1.83;;;;;;;;;;5088393;28;20299;-73
2022/10/19 11:48:29;;;;;;;2.72;2.15;;;;;;;;;;5103272;28;20636;-68
2022/10/19 11:50:59;;;;;;;2.58;2.38;;;;;;;;;;5093461;28;20287;-70
2022/10/19 11:53:30;;;;;;;4.15;2.40;;;;;;;;;;5108061;28;20696;-69
2022/10/19 11:56:00;;;;;;;3.28;2.47;;;;;;;;;;5102081;28;20576;-70
2022/10/19 11:58:35;;;;;;;2.72;2.08;;;;;;;;;;5104634;28;20212;-69
2022/10/19 12:01:07;;;;;;;3.22;2.92;;;;;;;;;;5102111;28;20209;-68
2022/10/19 12:03:43;;;;;;;2.85;2.42;;;;;;;;;;5094879;28;20222;-69
2022/10/19 12:06:14;;;;;;;3.22;2.78;;;;;;;;;;5091481;28;20197;-72
2022/10/19 12:08:52;;;;;;;4.68;2.30;;;;;;;;;;5093826;28;20210;-72
2022/10/19 12:11:26;;;;;;;3.45;2.40;;;;;;;;;;5093063;28;20197;-71
2022/10/19 12:13:56;;;;;;;3.30;2.35;;;;;;;;;;5095130;28;20303;-69
2022/10/19 12:16:27;;;;;;;3.40;3.05;;;;;;;;;;5099141;28;20194;-70
2022/10/19 12:18:59;;;;;;;3.55;2.15;;;;;;;;;;5094603;28;20618;-69
2022/10/19 12:21:29;;;;;;;2.35;1.77;;;;;;;;;;5096215;28;20759;-70
2022/10/19 12:23:57;;;;;;;3.10;2.10;;;;;;;;;;5096743;28;20279;-70
2022/10/19 12:26:25;;;;;;;2.08;1.98;;;;;;;;;;5095786;28;20458;-70
2022/10/19 12:28:54;;;;;;;2.40;2.30;;;;;;;;;;5088198;28;20297;-69
2022/10/19 12:31:24;;;;;;;2.08;1.98;;;;;;;;;;5098438;28;20202;-69
2022/10/19 12:33:53;;;;;;;2.20;2.00;;;;;;;;;;5094231;28;20204;-70
2022/10/19 12:36:25;;;;;;;3.70;2.72;;;;;;;;;;5091380;28;20210;-71
2022/10/19 12:38:57;;;;;;;2.13;2.03;;;;;;;;;;5095833;28;20668;-72
2022/10/19 12:41:27;;;;;;;2.55;1.95;;;;;;;;;;5095973;28;20279;-70
2022/10/19 12:43:59;;;;;;;2.22;2.13;;;;;;;;;;5093376;28;20324;-69
2022/10/19 12:46:32;;;;;;;2.42;2.22;;;;;;;;;;5093690;28;20220;-74
2022/10/19 12:49:18;;;;;;;2.95;2.00;;;;;;;;;;5096333;28;20206;-72
2022/10/19 12:51:46;;;;;;;2.83;2.22;;;;;;;;;;5097452;28;20243;-72
2022/10/19 12:54:13;;;;;;;1.95;1.85;;;;;;;;;;5095206;28;20221;-71
2022/10/19 12:56:47;;;;;;;4.50;1.98;;;;;;;;;;5093830;28;21336;-73
2022/10/19 12:59:23;;;;;;;2.13;1.90;;;;;;;;;;5092290;28;20210;-75
2022/10/19 13:01:51;;;;;;;1.70;1.60;;;;;;;;;;5093603;28;20208;-73
2022/10/19 13:04:21;;;;;;;3.80;2.17;;;;;;;;;;5093611;28;20225;-73
2022/10/19 13:06:49;;;;;;;2.08;1.88;;;;;;;;;;5089609;28;20202;-70
2022/10/19 13:09:24;;;;;;;3.63;1.92;;;;;;;;;;5094654;28;20208;-70
2022/10/19 13:12:06;;;;;;;2.35;2.15;;;;;;;;;;5097502;28;20305;-70
2022/10/19 13:14:42;;;;;;;1.85;1.75;;;;;;;;;;5092352;28;20234;-72
2022/10/19 13:17:11;;;;;;;2.13;1.85;;;;;;;;;;5090442;28;20222;-69
2022/10/19 13:19:41;;;;;;;1.75;1.65;;;;;;;;;;5091088;28;20206;-70
2022/10/19 13:22:26;;;;;;;2.58;2.38;;;;;;;;;;5096488;28;20232;-70
2022/10/19 13:25:12;;;;;;;1.80;1.60;;;;;;;;;;5093900;28;20247;-71
2022/10/19 13:27:39;;;;;;;2.03;1.73;;;;;;;;;;5099969;28;20703;-73
2022/10/19 13:30:27;;;;;;;1.38;1.38;;;;;;;;;;5094148;28;20210;-71
2022/10/19 13:32:55;;;;;;;2.95;1.65;;;;;;;;;;5103857;28;20194;-73
2022/10/19 13:35:27;;;;;;;1.90;1.80;;;;;;;;;;5095307;28;20218;-74
2022/10/19 13:38:27;;;;;;;2.20;1.98;;;;;;;;;;5099643;28;20208;-72
2022/10/19 13:41:00;;;;;;;2.05;1.95;;;;;;;;;;5020140;28;20594;-68
2022/10/19 13:43:28;;;;;;;3.00;1.60;;;;;;;;;;5022211;28;20228;-73
2022/10/19 13:46:01;;;;;;;1.92;1.83;;;;;;;;;;5058047;28;20209;-71
2022/10/19 13:48:34;;;;;;;1.27;1.27;;;;;;;;;;5102291;28;20206;-73
2022/10/19 13:51:05;;;;;;;2.40;1.75;;;;;;;;;;5099576;28;20198;-75
2022/10/19 13:53:37;;;;;;;1.90;1.80;;;;;;;;;;5102992;28;20205;-74
2022/10/19 13:56:11;;;;;;;2.63;1.95;;;;;;;;;;5098229;28;20225;-73
2022/10/19 13:58:59;;;;;;;2.35;2.13;;;;;;;;;;5106846;28;20307;-76
2022/10/19 14:01:31;;;;;;;1.83;1.73;;;;;;;;;;5109945;28;20638;-71
2022/10/19 14:04:04;;;;;;;1.48;1.48;;;;;;;;;;5102019;28;20225;-75
2022/10/19 14:06:34;;;;;;;1.85;1.75;;;;;;;;;;5103048;28;21320;-70
2022/10/19 14:09:31;;;;;;;2.17;2.08;;;;;;;;;;5099790;28;20220;-72
2022/10/19 14:12:05;;;;;;;1.30;1.30;;;;;;;;;;5026088;28;20252;-71
2022/10/19 14:14:39;;;;;;;1.70;1.60;;;;;;;;;;5078483;28;20205;-72
2022/10/19 14:17:14;;;;;;;1.42;1.42;;;;;;;;;;5090674;28;20203;-72
2022/10/19 14:19:43;;;;;;;1.70;1.70;;;;;;;;;;5103698;28;20202;-73
2022/10/19 14:22:21;;;;;;;1.60;1.55;;;;;;;;;;5100943;28;20212;-72
2022/10/19 14:24:48;;;;;;;1.67;1.58;;;;;;;;;;5096761;28;20221;-73
2022/10/19 14:27:18;;;;;;;1.30;1.20;;;;;;;;;;5100470;28;20587;-72
2022/10/19 14:29:46;;;;;;;2.38;1.90;;;;;;;;;;5095346;28;20207;-73
2022/10/19 14:32:14;;;;;;;1.58;1.48;;;;;;;;;;5099087;28;20208;-73
2022/10/19 14:34:43;;;;;;;1.90;1.80;;;;;;;;;;5103393;28;20222;-74
2022/10/19 14:37:13;;;;;;;1.50;1.50;;;;;;;;;;5097302;28;20198;-71
2022/10/19 14:39:41;;;;;;;1.30;1.25;;;;;;;;;;5099448;28;20215;-73
2022/10/19 14:42:10;;;;;;;2.08;1.63;;;;;;;;;;5097876;28;20206;-73
2022/10/19 14:44:41;;;;;;;2.15;2.05;;;;;;;;;;5097655;28;20203;-73
2022/10/19 14:47:19;;;;;;;1.60;1.55;;;;;;;;;;5097709;28;20218;-75
2022/10/19 14:49:47;;;;;;;6.38;1.83;;;;;;;;;;5095886;28;20687;-72
2022/10/19 14:52:17;;;;;;;3.05;2.25;;;;;;;;;;5096146;28;20233;-73
2022/10/19 14:54:46;;;;;;;2.35;2.15;;;;;;;;;;5096273;28;20202;-72
2022/10/19 14:57:14;;;;;;;2.05;1.95;;;;;;;;;;5092594;28;20205;-72
2022/10/19 14:59:45;;;;;;;2.45;1.95;;;;;;;;;;5094280;28;20665;-72